Terminal Aerodrome Forecast
Issued by NWS

Home | Current Version | Previous Version | Text Only | Print | Product List | Glossary On
Versions: 1 2 3 4 5 6 7 8 9 10 11 12 13 14 15 16
000
FTUS43 KAPX 252328
TAFMBL
TAF
KMBL 252328Z 2600/2624 21007KT P6SM BKN140
     FM260300 20004KT P6SM BKN050
     FM261000 19004KT P6SM SCT060
     FM261300 22005KT P6SM FEW060 SCT080=

USA.gov is the U.S. government's official web portal to all federal, state and local government web resources and services.